sensor_id;sensor_type;location;lat;lon;timestamp;P1;durP1;ratioP1;P2;durP2;ratioP2
56435;SDS011;42335;44.872;20.658;2024-02-15T00:00:09;175.25;;;101.68;;
56435;SDS011;42335;44.872;20.658;2024-02-15T00:02:36;163.25;;;88.78;;
56435;SDS011;42335;44.872;20.658;2024-02-15T00:05:02;160.00;;;85.38;;
56435;SDS011;42335;44.872;20.658;2024-02-15T00:07:28;145.93;;;75.82;;
56435;SDS011;42335;44.872;20.658;2024-02-15T00:09:53;141.52;;;74.85;;
56435;SDS011;42335;44.872;20.658;2024-02-15T00:12:19;132.95;;;72.82;;
56435;SDS011;42335;44.872;20.658;2024-02-15T00:14:45;124.28;;;67.53;;
56435;SDS011;42335;44.872;20.658;2024-02-15T00:17:11;124.43;;;68.82;;
56435;SDS011;42335;44.872;20.658;2024-02-15T00:19:37;122.28;;;64.78;;
56435;SDS011;42335;44.872;20.658;2024-02-15T00:22:06;124.35;;;70.88;;
56435;SDS011;42335;44.872;20.658;2024-02-15T00:24:32;123.93;;;68.07;;
56435;SDS011;42335;44.872;20.658;2024-02-15T00:26:58;126.32;;;66.15;;
56435;SDS011;42335;44.872;20.658;2024-02-15T00:29:24;130.48;;;65.28;;
56435;SDS011;42335;44.872;20.658;2024-02-15T00:31:51;116.60;;;64.32;;
56435;SDS011;42335;44.872;20.658;2024-02-15T00:34:17;117.68;;;62.28;;
56435;SDS011;42335;44.872;20.658;2024-02-15T00:36:43;117.35;;;64.07;;
56435;SDS011;42335;44.872;20.658;2024-02-15T00:39:11;125.43;;;66.65;;
56435;SDS011;42335;44.872;20.658;2024-02-15T00:41:43;134.38;;;69.90;;
56435;SDS011;42335;44.872;20.658;2024-02-15T00:44:10;145.73;;;71.63;;
56435;SDS011;42335;44.872;20.658;2024-02-15T00:46:36;130.10;;;75.00;;
56435;SDS011;42335;44.872;20.658;2024-02-15T00:49:05;139.00;;;72.07;;
56435;SDS011;42335;44.872;20.658;2024-02-15T00:51:31;136.75;;;72.60;;
56435;SDS011;42335;44.872;20.658;2024-02-15T00:53:59;154.23;;;81.43;;
56435;SDS011;42335;44.872;20.658;2024-02-15T00:56:26;183.43;;;93.30;;
56435;SDS011;42335;44.872;20.658;2024-02-15T00:58:52;219.13;;;105.40;;
56435;SDS011;42335;44.872;20.658;2024-02-15T01:01:18;220.75;;;102.78;;
56435;SDS011;42335;44.872;20.658;2024-02-15T01:03:44;220.60;;;102.65;;
56435;SDS011;42335;44.872;20.658;2024-02-15T01:06:10;172.52;;;89.05;;
56435;SDS011;42335;44.872;20.658;2024-02-15T01:08:35;156.07;;;81.20;;
56435;SDS011;42335;44.872;20.658;2024-02-15T01:11:01;150.73;;;80.07;;
56435;SDS011;42335;44.872;20.658;2024-02-15T01:13:27;146.13;;;76.18;;
56435;SDS011;42335;44.872;20.658;2024-02-15T01:15:53;145.73;;;77.15;;
56435;SDS011;42335;44.872;20.658;2024-02-15T01:18:20;138.40;;;74.75;;
56435;SDS011;42335;44.872;20.658;2024-02-15T01:20:45;125.45;;;68.82;;
56435;SDS011;42335;44.872;20.658;2024-02-15T01:23:11;127.28;;;67.97;;
56435;SDS011;42335;44.872;20.658;2024-02-15T01:25:37;133.88;;;68.72;;
56435;SDS011;42335;44.872;20.658;2024-02-15T01:28:04;115.65;;;64.65;;
56435;SDS011;42335;44.872;20.658;2024-02-15T01:30:31;113.68;;;64.10;;
56435;SDS011;42335;44.872;20.658;2024-02-15T01:32:57;119.30;;;63.78;;
56435;SDS011;42335;44.872;20.658;2024-02-15T01:35:23;123.05;;;67.63;;
56435;SDS011;42335;44.872;20.658;2024-02-15T01:37:50;115.57;;;65.32;;
56435;SDS011;42335;44.872;20.658;2024-02-15T01:40:15;126.13;;;65.63;;
56435;SDS011;42335;44.872;20.658;2024-02-15T01:42:42;124.78;;;64.35;;
56435;SDS011;42335;44.872;20.658;2024-02-15T01:45:09;116.30;;;62.83;;
56435;SDS011;42335;44.872;20.658;2024-02-15T01:47:37;112.68;;;61.80;;
56435;SDS011;42335;44.872;20.658;2024-02-15T01:50:05;99.35;;;54.63;;
56435;SDS011;42335;44.872;20.658;2024-02-15T01:52:32;104.22;;;57.88;;
56435;SDS011;42335;44.872;20.658;2024-02-15T01:54:59;98.75;;;53.08;;
56435;SDS011;42335;44.872;20.658;2024-02-15T01:57:34;86.97;;;50.60;;
56435;SDS011;42335;44.872;20.658;2024-02-15T02:00:03;86.25;;;50.83;;
56435;SDS011;42335;44.872;20.658;2024-02-15T02:02:30;85.10;;;50.65;;
56435;SDS011;42335;44.872;20.658;2024-02-15T02:04:58;88.97;;;50.47;;
56435;SDS011;42335;44.872;20.658;2024-02-15T02:07:23;88.70;;;52.00;;
56435;SDS011;42335;44.872;20.658;2024-02-15T02:09:49;85.55;;;49.72;;
56435;SDS011;42335;44.872;20.658;2024-02-15T02:12:15;90.03;;;50.20;;
56435;SDS011;42335;44.872;20.658;2024-02-15T02:14:43;88.50;;;49.85;;
56435;SDS011;42335;44.872;20.658;2024-02-15T02:17:12;79.85;;;49.28;;
56435;SDS011;42335;44.872;20.658;2024-02-15T02:19:39;87.80;;;50.15;;
56435;SDS011;42335;44.872;20.658;2024-02-15T02:22:05;84.60;;;48.50;;
56435;SDS011;42335;44.872;20.658;2024-02-15T02:24:31;82.60;;;46.42;;
56435;SDS011;42335;44.872;20.658;2024-02-15T02:27:05;83.90;;;49.47;;
56435;SDS011;42335;44.872;20.658;2024-02-15T02:29:32;76.20;;;48.35;;
56435;SDS011;42335;44.872;20.658;2024-02-15T02:31:59;78.40;;;46.70;;
56435;SDS011;42335;44.872;20.658;2024-02-15T02:34:25;81.90;;;46.70;;
56435;SDS011;42335;44.872;20.658;2024-02-15T02:36:50;77.53;;;46.80;;
56435;SDS011;42335;44.872;20.658;2024-02-15T02:39:16;75.60;;;46.38;;
56435;SDS011;42335;44.872;20.658;2024-02-15T02:41:42;87.95;;;46.10;;
56435;SDS011;42335;44.872;20.658;2024-02-15T02:44:08;74.45;;;46.58;;
56435;SDS011;42335;44.872;20.658;2024-02-15T02:46:34;87.65;;;47.60;;
56435;SDS011;42335;44.872;20.658;2024-02-15T02:49:00;82.65;;;49.40;;
56435;SDS011;42335;44.872;20.658;2024-02-15T02:51:26;87.95;;;48.78;;
56435;SDS011;42335;44.872;20.658;2024-02-15T02:53:52;90.70;;;52.92;;
56435;SDS011;42335;44.872;20.658;2024-02-15T02:56:17;80.63;;;47.47;;
56435;SDS011;42335;44.872;20.658;2024-02-15T02:58:43;87.70;;;48.88;;
56435;SDS011;42335;44.872;20.658;2024-02-15T03:01:09;88.88;;;47.15;;
56435;SDS011;42335;44.872;20.658;2024-02-15T03:03:38;83.47;;;47.15;;
56435;SDS011;42335;44.872;20.658;2024-02-15T03:06:04;83.82;;;46.33;;
56435;SDS011;42335;44.872;20.658;2024-02-15T03:08:31;87.43;;;48.85;;
56435;SDS011;42335;44.872;20.658;2024-02-15T03:10:57;86.13;;;49.60;;
56435;SDS011;42335;44.872;20.658;2024-02-15T03:13:22;89.63;;;50.72;;
56435;SDS011;42335;44.872;20.658;2024-02-15T03:15:48;86.45;;;52.47;;
56435;SDS011;42335;44.872;20.658;2024-02-15T03:18:15;98.85;;;53.25;;
56435;SDS011;42335;44.872;20.658;2024-02-15T03:20:41;86.00;;;53.17;;
56435;SDS011;42335;44.872;20.658;2024-02-15T03:23:07;91.03;;;53.00;;
56435;SDS011;42335;44.872;20.658;2024-02-15T03:25:32;89.85;;;52.58;;
56435;SDS011;42335;44.872;20.658;2024-02-15T03:27:59;96.28;;;54.85;;
56435;SDS011;42335;44.872;20.658;2024-02-15T03:30:29;102.50;;;54.70;;
56435;SDS011;42335;44.872;20.658;2024-02-15T03:32:57;97.90;;;53.85;;
56435;SDS011;42335;44.872;20.658;2024-02-15T03:35:24;99.15;;;54.65;;
56435;SDS011;42335;44.872;20.658;2024-02-15T03:37:51;116.30;;;57.22;;
56435;SDS011;42335;44.872;20.658;2024-02-15T03:40:18;111.00;;;58.92;;
56435;SDS011;42335;44.872;20.658;2024-02-15T03:42:45;115.38;;;59.33;;
56435;SDS011;42335;44.872;20.658;2024-02-15T03:45:12;108.40;;;58.13;;
56435;SDS011;42335;44.872;20.658;2024-02-15T03:47:38;95.95;;;53.50;;
56435;SDS011;42335;44.872;20.658;2024-02-15T03:50:04;102.47;;;54.92;;
56435;SDS011;42335;44.872;20.658;2024-02-15T03:52:31;104.22;;;55.58;;
56435;SDS011;42335;44.872;20.658;2024-02-15T03:54:57;106.22;;;56.30;;
56435;SDS011;42335;44.872;20.658;2024-02-15T03:57:24;96.70;;;53.95;;
56435;SDS011;42335;44.872;20.658;2024-02-15T03:59:50;93.22;;;55.20;;
56435;SDS011;42335;44.872;20.658;2024-02-15T04:02:17;94.85;;;56.45;;
56435;SDS011;42335;44.872;20.658;2024-02-15T04:04:48;95.97;;;54.92;;
56435;SDS011;42335;44.872;20.658;2024-02-15T04:07:17;91.75;;;52.42;;
56435;SDS011;42335;44.872;20.658;2024-02-15T04:09:44;102.65;;;54.42;;
56435;SDS011;42335;44.872;20.658;2024-02-15T04:12:11;94.35;;;52.97;;
56435;SDS011;42335;44.872;20.658;2024-02-15T04:14:37;112.07;;;57.53;;
56435;SDS011;42335;44.872;20.658;2024-02-15T04:17:03;110.45;;;59.95;;
56435;SDS011;42335;44.872;20.658;2024-02-15T04:19:30;120.47;;;67.13;;
56435;SDS011;42335;44.872;20.658;2024-02-15T04:21:56;132.43;;;72.95;;
56435;SDS011;42335;44.872;20.658;2024-02-15T04:24:22;152.75;;;81.30;;
56435;SDS011;42335;44.872;20.658;2024-02-15T04:26:48;198.13;;;99.53;;
56435;SDS011;42335;44.872;20.658;2024-02-15T04:29:14;322.23;;;162.02;;
56435;SDS011;42335;44.872;20.658;2024-02-15T04:31:41;235.25;;;125.22;;
56435;SDS011;42335;44.872;20.658;2024-02-15T04:34:08;138.18;;;77.65;;
56435;SDS011;42335;44.872;20.658;2024-02-15T04:36:36;114.53;;;60.60;;
56435;SDS011;42335;44.872;20.658;2024-02-15T04:39:02;99.78;;;52.28;;
56435;SDS011;42335;44.872;20.658;2024-02-15T04:41:29;109.30;;;57.78;;
56435;SDS011;42335;44.872;20.658;2024-02-15T04:43:55;117.10;;;59.53;;
56435;SDS011;42335;44.872;20.658;2024-02-15T04:46:22;114.53;;;60.38;;
56435;SDS011;42335;44.872;20.658;2024-02-15T04:48:48;106.53;;;57.22;;
56435;SDS011;42335;44.872;20.658;2024-02-15T04:51:16;114.05;;;62.05;;
56435;SDS011;42335;44.872;20.658;2024-02-15T04:53:43;120.90;;;61.45;;
56435;SDS011;42335;44.872;20.658;2024-02-15T04:56:11;112.97;;;61.03;;
56435;SDS011;42335;44.872;20.658;2024-02-15T04:58:41;111.00;;;60.55;;
56435;SDS011;42335;44.872;20.658;2024-02-15T05:01:16;119.28;;;64.13;;
56435;SDS011;42335;44.872;20.658;2024-02-15T05:03:44;116.32;;;63.00;;
56435;SDS011;42335;44.872;20.658;2024-02-15T05:06:10;119.00;;;64.05;;
56435;SDS011;42335;44.872;20.658;2024-02-15T05:08:38;144.70;;;78.68;;
56435;SDS011;42335;44.872;20.658;2024-02-15T05:11:10;606.88;;;365.80;;
56435;SDS011;42335;44.872;20.658;2024-02-15T05:13:47;488.20;;;264.83;;
56435;SDS011;42335;44.872;20.658;2024-02-15T05:16:17;453.13;;;218.95;;
56435;SDS011;42335;44.872;20.658;2024-02-15T05:18:43;241.43;;;118.97;;
56435;SDS011;42335;44.872;20.658;2024-02-15T05:21:10;172.85;;;85.95;;
56435;SDS011;42335;44.872;20.658;2024-02-15T05:23:38;152.18;;;78.20;;
56435;SDS011;42335;44.872;20.658;2024-02-15T05:26:08;138.43;;;73.88;;
56435;SDS011;42335;44.872;20.658;2024-02-15T05:28:37;140.60;;;72.03;;
56435;SDS011;42335;44.872;20.658;2024-02-15T05:31:19;146.23;;;72.30;;
56435;SDS011;42335;44.872;20.658;2024-02-15T05:33:49;134.57;;;72.97;;
56435;SDS011;42335;44.872;20.658;2024-02-15T05:36:15;156.23;;;75.68;;
56435;SDS011;42335;44.872;20.658;2024-02-15T05:38:46;168.43;;;92.28;;
56435;SDS011;42335;44.872;20.658;2024-02-15T05:41:14;186.68;;;102.80;;
56435;SDS011;42335;44.872;20.658;2024-02-15T05:43:40;221.95;;;121.15;;
56435;SDS011;42335;44.872;20.658;2024-02-15T05:46:09;234.73;;;128.77;;
56435;SDS011;42335;44.872;20.658;2024-02-15T05:48:35;201.02;;;113.68;;
56435;SDS011;42335;44.872;20.658;2024-02-15T05:51:06;174.63;;;91.40;;
56435;SDS011;42335;44.872;20.658;2024-02-15T05:53:33;175.43;;;92.65;;
56435;SDS011;42335;44.872;20.658;2024-02-15T05:56:03;164.27;;;89.90;;
56435;SDS011;42335;44.872;20.658;2024-02-15T05:58:33;418.83;;;242.90;;
56435;SDS011;42335;44.872;20.658;2024-02-15T06:01:00;139.63;;;77.50;;
56435;SDS011;42335;44.872;20.658;2024-02-15T06:03:28;136.82;;;73.55;;
56435;SDS011;42335;44.872;20.658;2024-02-15T06:05:54;131.20;;;72.28;;
56435;SDS011;42335;44.872;20.658;2024-02-15T06:08:26;122.13;;;63.00;;
56435;SDS011;42335;44.872;20.658;2024-02-15T06:10:55;117.65;;;64.05;;
56435;SDS011;42335;44.872;20.658;2024-02-15T06:13:22;127.45;;;62.55;;
56435;SDS011;42335;44.872;20.658;2024-02-15T06:15:48;118.05;;;62.13;;
56435;SDS011;42335;44.872;20.658;2024-02-15T06:18:21;105.10;;;60.78;;
56435;SDS011;42335;44.872;20.658;2024-02-15T06:20:52;97.63;;;56.65;;
56435;SDS011;42335;44.872;20.658;2024-02-15T06:23:19;99.22;;;56.38;;
56435;SDS011;42335;44.872;20.658;2024-02-15T06:25:46;90.50;;;51.45;;
56435;SDS011;42335;44.872;20.658;2024-02-15T06:28:14;82.22;;;51.13;;
56435;SDS011;42335;44.872;20.658;2024-02-15T06:33:43;81.95;;;45.97;;
56435;SDS011;42335;44.872;20.658;2024-02-15T06:36:27;78.50;;;46.70;;
56435;SDS011;42335;44.872;20.658;2024-02-15T06:41:55;86.40;;;48.60;;
56435;SDS011;42335;44.872;20.658;2024-02-15T06:44:21;81.30;;;49.83;;
56435;SDS011;42335;44.872;20.658;2024-02-15T06:46:49;83.05;;;50.22;;
56435;SDS011;42335;44.872;20.658;2024-02-15T06:49:15;84.45;;;51.10;;
56435;SDS011;42335;44.872;20.658;2024-02-15T06:51:41;80.38;;;49.00;;
56435;SDS011;42335;44.872;20.658;2024-02-15T06:54:08;78.93;;;48.60;;
56435;SDS011;42335;44.872;20.658;2024-02-15T06:56:38;77.32;;;45.30;;
56435;SDS011;42335;44.872;20.658;2024-02-15T06:59:04;80.35;;;45.03;;
56435;SDS011;42335;44.872;20.658;2024-02-15T07:01:31;72.07;;;44.63;;
56435;SDS011;42335;44.872;20.658;2024-02-15T07:03:59;68.70;;;42.28;;
56435;SDS011;42335;44.872;20.658;2024-02-15T07:06:25;73.72;;;45.50;;
56435;SDS011;42335;44.872;20.658;2024-02-15T07:08:52;70.20;;;42.97;;
56435;SDS011;42335;44.872;20.658;2024-02-15T07:11:20;59.67;;;40.85;;
56435;SDS011;42335;44.872;20.658;2024-02-15T07:13:46;65.22;;;41.55;;
56435;SDS011;42335;44.872;20.658;2024-02-15T07:16:12;69.28;;;43.92;;
56435;SDS011;42335;44.872;20.658;2024-02-15T07:18:40;73.10;;;42.40;;
56435;SDS011;42335;44.872;20.658;2024-02-15T07:21:08;76.93;;;44.30;;
56435;SDS011;42335;44.872;20.658;2024-02-15T07:23:39;70.68;;;42.75;;
56435;SDS011;42335;44.872;20.658;2024-02-15T07:26:06;70.05;;;42.38;;
56435;SDS011;42335;44.872;20.658;2024-02-15T07:28:33;63.35;;;41.55;;
56435;SDS011;42335;44.872;20.658;2024-02-15T07:30:59;59.42;;;39.33;;
56435;SDS011;42335;44.872;20.658;2024-02-15T07:33:27;66.15;;;38.50;;
56435;SDS011;42335;44.872;20.658;2024-02-15T07:35:54;67.18;;;43.28;;
56435;SDS011;42335;44.872;20.658;2024-02-15T07:38:21;54.60;;;37.78;;
56435;SDS011;42335;44.872;20.658;2024-02-15T07:40:52;44.78;;;33.75;;
56435;SDS011;42335;44.872;20.658;2024-02-15T07:43:17;46.15;;;33.20;;
56435;SDS011;42335;44.872;20.658;2024-02-15T07:45:43;45.80;;;34.45;;
56435;SDS011;42335;44.872;20.658;2024-02-15T07:48:09;49.05;;;35.13;;
56435;SDS011;42335;44.872;20.658;2024-02-15T07:50:35;48.97;;;36.42;;
56435;SDS011;42335;44.872;20.658;2024-02-15T07:53:02;50.90;;;38.08;;
56435;SDS011;42335;44.872;20.658;2024-02-15T07:55:31;46.50;;;33.63;;
56435;SDS011;42335;44.872;20.658;2024-02-15T07:57:57;45.75;;;31.80;;
56435;SDS011;42335;44.872;20.658;2024-02-15T08:00:24;41.47;;;32.13;;
56435;SDS011;42335;44.872;20.658;2024-02-15T08:02:52;38.25;;;30.10;;
56435;SDS011;42335;44.872;20.658;2024-02-15T08:05:18;39.35;;;31.38;;
56435;SDS011;42335;44.872;20.658;2024-02-15T08:07:45;44.78;;;32.08;;
56435;SDS011;42335;44.872;20.658;2024-02-15T08:10:14;38.50;;;30.83;;
56435;SDS011;42335;44.872;20.658;2024-02-15T08:12:44;37.20;;;31.10;;
56435;SDS011;42335;44.872;20.658;2024-02-15T08:15:11;40.72;;;29.55;;
56435;SDS011;42335;44.872;20.658;2024-02-15T08:17:46;41.75;;;29.60;;
56435;SDS011;42335;44.872;20.658;2024-02-15T08:20:12;39.15;;;29.95;;
56435;SDS011;42335;44.872;20.658;2024-02-15T08:22:39;38.00;;;29.52;;
56435;SDS011;42335;44.872;20.658;2024-02-15T08:25:06;277.70;;;234.30;;
56435;SDS011;42335;44.872;20.658;2024-02-15T08:27:57;41.28;;;29.83;;
56435;SDS011;42335;44.872;20.658;2024-02-15T08:30:22;34.85;;;28.23;;
56435;SDS011;42335;44.872;20.658;2024-02-15T08:32:48;37.60;;;28.30;;
56435;SDS011;42335;44.872;20.658;2024-02-15T08:35:15;43.60;;;28.27;;
56435;SDS011;42335;44.872;20.658;2024-02-15T08:37:41;38.47;;;27.95;;
56435;SDS011;42335;44.872;20.658;2024-02-15T08:40:08;62.53;;;54.38;;
56435;SDS011;42335;44.872;20.658;2024-02-15T08:42:41;85.85;;;75.63;;
56435;SDS011;42335;44.872;20.658;2024-02-15T08:45:08;54.15;;;41.17;;
56435;SDS011;42335;44.872;20.658;2024-02-15T08:47:43;32.08;;;25.33;;
56435;SDS011;42335;44.872;20.658;2024-02-15T08:50:11;36.20;;;26.83;;
56435;SDS011;42335;44.872;20.658;2024-02-15T08:52:37;33.13;;;25.17;;
56435;SDS011;42335;44.872;20.658;2024-02-15T08:55:10;38.63;;;27.05;;
56435;SDS011;42335;44.872;20.658;2024-02-15T08:57:39;35.72;;;25.90;;
56435;SDS011;42335;44.872;20.658;2024-02-15T09:00:09;32.55;;;26.25;;
56435;SDS011;42335;44.872;20.658;2024-02-15T09:02:56;32.10;;;24.77;;
56435;SDS011;42335;44.872;20.658;2024-02-15T09:05:22;30.80;;;25.77;;
56435;SDS011;42335;44.872;20.658;2024-02-15T09:07:49;37.03;;;26.40;;
56435;SDS011;42335;44.872;20.658;2024-02-15T09:10:18;34.50;;;25.48;;
56435;SDS011;42335;44.872;20.658;2024-02-15T09:12:44;32.58;;;23.98;;
56435;SDS011;42335;44.872;20.658;2024-02-15T09:15:14;33.80;;;26.00;;
56435;SDS011;42335;44.872;20.658;2024-02-15T09:17:40;32.72;;;25.00;;
56435;SDS011;42335;44.872;20.658;2024-02-15T09:20:12;33.15;;;23.92;;
56435;SDS011;42335;44.872;20.658;2024-02-15T09:22:50;28.00;;;22.27;;
56435;SDS011;42335;44.872;20.658;2024-02-15T09:25:16;29.48;;;23.60;;
56435;SDS011;42335;44.872;20.658;2024-02-15T09:27:43;33.78;;;24.10;;
56435;SDS011;42335;44.872;20.658;2024-02-15T09:30:10;30.15;;;23.20;;
56435;SDS011;42335;44.872;20.658;2024-02-15T09:32:37;29.92;;;22.13;;
56435;SDS011;42335;44.872;20.658;2024-02-15T09:35:04;27.75;;;21.48;;
56435;SDS011;42335;44.872;20.658;2024-02-15T09:37:33;28.35;;;23.20;;
56435;SDS011;42335;44.872;20.658;2024-02-15T09:39:59;24.73;;;21.65;;
56435;SDS011;42335;44.872;20.658;2024-02-15T09:42:31;26.80;;;22.13;;
56435;SDS011;42335;44.872;20.658;2024-02-15T09:44:59;35.10;;;20.98;;
56435;SDS011;42335;44.872;20.658;2024-02-15T09:47:28;25.20;;;21.45;;
56435;SDS011;42335;44.872;20.658;2024-02-15T09:50:00;29.30;;;21.35;;
56435;SDS011;42335;44.872;20.658;2024-02-15T09:52:26;25.25;;;19.27;;
56435;SDS011;42335;44.872;20.658;2024-02-15T09:54:58;22.38;;;17.95;;
56435;SDS011;42335;44.872;20.658;2024-02-15T09:57:28;20.63;;;17.45;;
56435;SDS011;42335;44.872;20.658;2024-02-15T09:59:54;21.42;;;15.50;;
56435;SDS011;42335;44.872;20.658;2024-02-15T10:02:20;21.83;;;15.15;;
56435;SDS011;42335;44.872;20.658;2024-02-15T10:04:47;18.20;;;14.23;;
56435;SDS011;42335;44.872;20.658;2024-02-15T10:07:13;15.75;;;13.40;;
56435;SDS011;42335;44.872;20.658;2024-02-15T10:09:39;15.52;;;11.68;;
56435;SDS011;42335;44.872;20.658;2024-02-15T10:12:08;20.63;;;13.23;;
56435;SDS011;42335;44.872;20.658;2024-02-15T10:14:35;14.75;;;11.25;;
56435;SDS011;42335;44.872;20.658;2024-02-15T10:17:07;11.27;;;9.52;;
56435;SDS011;42335;44.872;20.658;2024-02-15T10:19:39;13.40;;;9.57;;
56435;SDS011;42335;44.872;20.658;2024-02-15T10:22:07;14.00;;;8.48;;
56435;SDS011;42335;44.872;20.658;2024-02-15T10:24:34;9.75;;;8.75;;
56435;SDS011;42335;44.872;20.658;2024-02-15T10:27:01;12.00;;;8.57;;
56435;SDS011;42335;44.872;20.658;2024-02-15T10:29:32;12.02;;;9.20;;
56435;SDS011;42335;44.872;20.658;2024-02-15T10:32:01;15.05;;;10.50;;
56435;SDS011;42335;44.872;20.658;2024-02-15T10:34:28;14.77;;;10.57;;
56435;SDS011;42335;44.872;20.658;2024-02-15T10:36:55;11.82;;;9.45;;
56435;SDS011;42335;44.872;20.658;2024-02-15T10:39:45;12.23;;;9.43;;
56435;SDS011;42335;44.872;20.658;2024-02-15T10:42:12;10.60;;;8.43;;
56435;SDS011;42335;44.872;20.658;2024-02-15T10:44:39;15.90;;;9.52;;
56435;SDS011;42335;44.872;20.658;2024-02-15T10:47:05;10.38;;;8.00;;
56435;SDS011;42335;44.872;20.658;2024-02-15T10:49:34;18.13;;;7.82;;
56435;SDS011;42335;44.872;20.658;2024-02-15T10:52:03;10.80;;;7.03;;
56435;SDS011;42335;44.872;20.658;2024-02-15T10:54:37;11.23;;;7.60;;
56435;SDS011;42335;44.872;20.658;2024-02-15T10:57:11;10.60;;;7.95;;
56435;SDS011;42335;44.872;20.658;2024-02-15T10:59:40;9.57;;;7.30;;
56435;SDS011;42335;44.872;20.658;2024-02-15T11:04:55;13.32;;;8.35;;
56435;SDS011;42335;44.872;20.658;2024-02-15T11:07:28;16.38;;;8.43;;
56435;SDS011;42335;44.872;20.658;2024-02-15T11:09:54;14.27;;;9.90;;
56435;SDS011;42335;44.872;20.658;2024-02-15T11:12:24;11.20;;;8.10;;
56435;SDS011;42335;44.872;20.658;2024-02-15T11:14:53;17.05;;;10.00;;
56435;SDS011;42335;44.872;20.658;2024-02-15T11:20:53;10.38;;;6.93;;
56435;SDS011;42335;44.872;20.658;2024-02-15T11:23:04;11.27;;;7.95;;
56435;SDS011;42335;44.872;20.658;2024-02-15T11:25:33;12.25;;;7.22;;
56435;SDS011;42335;44.872;20.658;2024-02-15T11:30:50;12.55;;;7.20;;
56435;SDS011;42335;44.872;20.658;2024-02-15T11:36:04;11.80;;;8.02;;
56435;SDS011;42335;44.872;20.658;2024-02-15T11:38:31;10.55;;;7.45;;
56435;SDS011;42335;44.872;20.658;2024-02-15T11:46:12;10.00;;;6.88;;
56435;SDS011;42335;44.872;20.658;2024-02-15T11:48:45;10.20;;;6.75;;
56435;SDS011;42335;44.872;20.658;2024-02-15T11:54:02;10.90;;;6.97;;
56435;SDS011;42335;44.872;20.658;2024-02-15T11:56:31;10.75;;;7.40;;
56435;SDS011;42335;44.872;20.658;2024-02-15T11:59:09;12.43;;;7.20;;
56435;SDS011;42335;44.872;20.658;2024-02-15T12:01:43;12.68;;;7.40;;
56435;SDS011;42335;44.872;20.658;2024-02-15T12:04:28;12.88;;;7.50;;
56435;SDS011;42335;44.872;20.658;2024-02-15T12:07:13;9.77;;;6.50;;
56435;SDS011;42335;44.872;20.658;2024-02-15T12:09:59;14.73;;;8.23;;
56435;SDS011;42335;44.872;20.658;2024-02-15T12:12:53;15.27;;;7.32;;
56435;SDS011;42335;44.872;20.658;2024-02-15T12:15:38;10.48;;;7.78;;
56435;SDS011;42335;44.872;20.658;2024-02-15T12:18:23;16.55;;;8.57;;
56435;SDS011;42335;44.872;20.658;2024-02-15T12:21:07;17.02;;;8.82;;
56435;SDS011;42335;44.872;20.658;2024-02-15T12:23:35;11.70;;;8.38;;
56435;SDS011;42335;44.872;20.658;2024-02-15T12:26:03;16.83;;;9.77;;
56435;SDS011;42335;44.872;20.658;2024-02-15T12:28:29;15.43;;;8.48;;
56435;SDS011;42335;44.872;20.658;2024-02-15T12:30:57;13.95;;;8.85;;
56435;SDS011;42335;44.872;20.658;2024-02-15T12:33:23;15.73;;;8.95;;
56435;SDS011;42335;44.872;20.658;2024-02-15T12:35:49;13.25;;;9.00;;
56435;SDS011;42335;44.872;20.658;2024-02-15T12:38:18;12.30;;;8.55;;
56435;SDS011;42335;44.872;20.658;2024-02-15T12:40:43;15.02;;;9.68;;
56435;SDS011;42335;44.872;20.658;2024-02-15T12:43:11;12.55;;;8.90;;
56435;SDS011;42335;44.872;20.658;2024-02-15T12:45:40;18.30;;;9.60;;
56435;SDS011;42335;44.872;20.658;2024-02-15T12:48:07;16.85;;;10.45;;
56435;SDS011;42335;44.872;20.658;2024-02-15T12:50:34;15.88;;;9.43;;
56435;SDS011;42335;44.872;20.658;2024-02-15T12:53:00;12.38;;;8.27;;
56435;SDS011;42335;44.872;20.658;2024-02-15T12:57:59;11.27;;;8.43;;
56435;SDS011;42335;44.872;20.658;2024-02-15T13:00:29;18.48;;;9.63;;
56435;SDS011;42335;44.872;20.658;2024-02-15T13:03:03;13.00;;;9.10;;
56435;SDS011;42335;44.872;20.658;2024-02-15T13:05:33;12.35;;;8.52;;
56435;SDS011;42335;44.872;20.658;2024-02-15T13:07:59;13.95;;;8.55;;
56435;SDS011;42335;44.872;20.658;2024-02-15T13:10:28;13.75;;;8.95;;
56435;SDS011;42335;44.872;20.658;2024-02-15T13:12:55;12.32;;;8.85;;
56435;SDS011;42335;44.872;20.658;2024-02-15T13:15:21;15.15;;;10.15;;
56435;SDS011;42335;44.872;20.658;2024-02-15T13:17:52;16.50;;;9.15;;
56435;SDS011;42335;44.872;20.658;2024-02-15T13:20:22;12.32;;;8.40;;
56435;SDS011;42335;44.872;20.658;2024-02-15T13:22:59;17.02;;;8.13;;
56435;SDS011;42335;44.872;20.658;2024-02-15T13:25:30;22.42;;;6.85;;
56435;SDS011;42335;44.872;20.658;2024-02-15T13:27:57;12.38;;;7.40;;
56435;SDS011;42335;44.872;20.658;2024-02-15T13:30:23;16.35;;;9.40;;
56435;SDS011;42335;44.872;20.658;2024-02-15T13:32:52;12.27;;;7.85;;
56435;SDS011;42335;44.872;20.658;2024-02-15T13:35:19;14.35;;;7.18;;
56435;SDS011;42335;44.872;20.658;2024-02-15T13:37:49;12.45;;;7.50;;
56435;SDS011;42335;44.872;20.658;2024-02-15T13:40:17;14.20;;;7.85;;
56435;SDS011;42335;44.872;20.658;2024-02-15T13:42:45;14.98;;;9.13;;
56435;SDS011;42335;44.872;20.658;2024-02-15T13:45:17;18.50;;;10.35;;
56435;SDS011;42335;44.872;20.658;2024-02-15T13:48:04;11.27;;;8.00;;
56435;SDS011;42335;44.872;20.658;2024-02-15T13:50:32;12.77;;;8.60;;
56435;SDS011;42335;44.872;20.658;2024-02-15T13:52:58;16.85;;;9.55;;
56435;SDS011;42335;44.872;20.658;2024-02-15T13:55:25;12.55;;;8.40;;
56435;SDS011;42335;44.872;20.658;2024-02-15T13:57:51;14.43;;;8.57;;
56435;SDS011;42335;44.872;20.658;2024-02-15T14:00:18;18.58;;;11.35;;
56435;SDS011;42335;44.872;20.658;2024-02-15T14:02:51;14.48;;;9.40;;
56435;SDS011;42335;44.872;20.658;2024-02-15T14:05:21;13.23;;;8.13;;
56435;SDS011;42335;44.872;20.658;2024-02-15T14:07:57;11.60;;;6.90;;
56435;SDS011;42335;44.872;20.658;2024-02-15T14:10:24;11.15;;;6.75;;
56435;SDS011;42335;44.872;20.658;2024-02-15T14:12:52;15.82;;;7.72;;
56435;SDS011;42335;44.872;20.658;2024-02-15T14:15:23;16.20;;;8.45;;
56435;SDS011;42335;44.872;20.658;2024-02-15T14:17:49;16.30;;;7.25;;
56435;SDS011;42335;44.872;20.658;2024-02-15T14:20:15;11.65;;;8.45;;
56435;SDS011;42335;44.872;20.658;2024-02-15T14:22:43;15.13;;;8.60;;
56435;SDS011;42335;44.872;20.658;2024-02-15T14:25:10;16.13;;;8.73;;
56435;SDS011;42335;44.872;20.658;2024-02-15T14:27:39;14.32;;;8.85;;
56435;SDS011;42335;44.872;20.658;2024-02-15T14:30:05;15.50;;;8.90;;
56435;SDS011;42335;44.872;20.658;2024-02-15T14:32:51;20.67;;;9.85;;
56435;SDS011;42335;44.872;20.658;2024-02-15T14:35:38;18.70;;;9.25;;
56435;SDS011;42335;44.872;20.658;2024-02-15T14:38:10;15.13;;;8.70;;
56435;SDS011;42335;44.872;20.658;2024-02-15T14:40:39;12.68;;;8.65;;
56435;SDS011;42335;44.872;20.658;2024-02-15T14:43:06;16.70;;;8.32;;